sensor_id;sensor_type;location;lat;lon;timestamp;P1;durP1;ratioP1;P2;durP2;ratioP2
57093;SDS011;42970;50.996;3.706;2023-10-31T08:37:49;24.30;;;11.00;;
57093;SDS011;42970;50.996;3.706;2023-10-31T08:40:14;22.85;;;10.10;;
57093;SDS011;42970;50.996;3.706;2023-10-31T08:42:39;30.30;;;9.57;;
57093;SDS011;42970;50.996;3.706;2023-10-31T12:13:58;22.00;;;9.90;;
57093;SDS011;42970;50.996;3.706;2023-10-31T12:16:26;25.15;;;10.98;;
57093;SDS011;42970;50.996;3.706;2023-10-31T12:18:55;23.00;;;10.70;;
57093;SDS011;42970;50.996;3.706;2023-10-31T12:21:33;25.05;;;10.88;;
57093;SDS011;42970;50.996;3.706;2023-10-31T12:24:05;24.00;;;11.15;;
57093;SDS011;42970;50.996;3.706;2023-10-31T12:26:31;31.20;;;11.68;;
57093;SDS011;42970;50.996;3.706;2023-10-31T12:29:07;26.25;;;10.40;;
57093;SDS011;42970;50.996;3.706;2023-10-31T12:31:33;24.38;;;11.27;;
57093;SDS011;42970;50.996;3.706;2023-10-31T12:34:04;18.38;;;9.05;;
57093;SDS011;42970;50.996;3.706;2023-10-31T12:36:29;29.92;;;10.30;;
57093;SDS011;42970;50.996;3.706;2023-10-31T12:38:54;36.78;;;12.00;;
57093;SDS011;42970;50.996;3.706;2023-10-31T12:41:20;21.23;;;9.15;;
57093;SDS011;42970;50.996;3.706;2023-10-31T12:43:51;13.40;;;7.65;;
57093;SDS011;42970;50.996;3.706;2023-10-31T12:46:27;19.38;;;8.82;;
57093;SDS011;42970;50.996;3.706;2023-10-31T12:56:08;17.50;;;7.60;;
57093;SDS011;42970;50.996;3.706;2023-10-31T12:58:33;14.30;;;7.37;;
57093;SDS011;42970;50.996;3.706;2023-10-31T13:00:59;7.20;;;4.60;;
57093;SDS011;42970;50.996;3.706;2023-10-31T13:03:24;18.52;;;7.68;;
57093;SDS011;42970;50.996;3.706;2023-10-31T13:05:50;18.47;;;7.57;;
57093;SDS011;42970;50.996;3.706;2023-10-31T13:08:15;11.45;;;6.60;;
57093;SDS011;42970;50.996;3.706;2023-10-31T13:10:41;19.63;;;7.78;;
57093;SDS011;42970;50.996;3.706;2023-10-31T13:13:08;15.43;;;6.82;;
57093;SDS011;42970;50.996;3.706;2023-10-31T13:15:33;16.67;;;7.30;;
57093;SDS011;42970;50.996;3.706;2023-10-31T13:17:58;15.10;;;7.00;;
57093;SDS011;42970;50.996;3.706;2023-10-31T13:20:24;9.20;;;6.30;;
57093;SDS011;42970;50.996;3.706;2023-10-31T13:22:49;9.73;;;5.75;;
57093;SDS011;42970;50.996;3.706;2023-10-31T13:25:15;12.65;;;5.80;;
57093;SDS011;42970;50.996;3.706;2023-10-31T13:27:41;11.20;;;4.90;;
57093;SDS011;42970;50.996;3.706;2023-10-31T13:34:58;8.07;;;4.50;;
57093;SDS011;42970;50.996;3.706;2023-10-31T13:39:49;11.38;;;4.05;;
57093;SDS011;42970;50.996;3.706;2023-10-31T13:42:14;9.25;;;4.00;;
57093;SDS011;42970;50.996;3.706;2023-10-31T13:44:40;7.88;;;4.15;;
57093;SDS011;42970;50.996;3.706;2023-10-31T13:47:05;5.57;;;3.70;;
57093;SDS011;42970;50.996;3.706;2023-10-31T13:49:30;6.63;;;3.20;;
57093;SDS011;42970;50.996;3.706;2023-10-31T13:51:56;6.00;;;2.83;;
57093;SDS011;42970;50.996;3.706;2023-10-31T13:54:21;6.15;;;3.67;;
57093;SDS011;42970;50.996;3.706;2023-10-31T13:56:47;4.65;;;3.00;;
57093;SDS011;42970;50.996;3.706;2023-10-31T13:59:12;10.05;;;3.50;;
57093;SDS011;42970;50.996;3.706;2023-10-31T14:01:38;5.85;;;3.20;;
57093;SDS011;42970;50.996;3.706;2023-10-31T14:06:29;8.80;;;2.90;;
57093;SDS011;42970;50.996;3.706;2023-10-31T14:08:57;8.10;;;3.30;;
57093;SDS011;42970;50.996;3.706;2023-10-31T14:11:23;8.00;;;3.60;;
57093;SDS011;42970;50.996;3.706;2023-10-31T14:13:48;10.73;;;4.00;;
57093;SDS011;42970;50.996;3.706;2023-10-31T14:16:15;3.72;;;2.75;;
57093;SDS011;42970;50.996;3.706;2023-10-31T14:18:41;8.23;;;3.67;;
57093;SDS011;42970;50.996;3.706;2023-10-31T14:21:07;7.18;;;3.63;;
57093;SDS011;42970;50.996;3.706;2023-10-31T14:23:33;7.00;;;3.78;;
57093;SDS011;42970;50.996;3.706;2023-10-31T14:25:58;5.47;;;3.28;;
57093;SDS011;42970;50.996;3.706;2023-10-31T14:28:23;8.13;;;4.00;;
57093;SDS011;42970;50.996;3.706;2023-10-31T14:30:49;5.05;;;3.10;;
57093;SDS011;42970;50.996;3.706;2023-10-31T14:33:14;8.50;;;3.30;;
57093;SDS011;42970;50.996;3.706;2023-10-31T14:35:40;7.43;;;3.60;;
57093;SDS011;42970;50.996;3.706;2023-10-31T14:38:05;10.13;;;4.13;;
57093;SDS011;42970;50.996;3.706;2023-10-31T14:40:30;11.68;;;3.90;;
